sensor_id;sensor_type;location;lat;lon;timestamp;temperature;humidity
13521;DHT22;6832;51.186;3.236;2023-07-31T00:01:46;27.20;53.70
13521;DHT22;6832;51.186;3.236;2023-07-31T00:04:13;27.20;53.70
13521;DHT22;6832;51.186;3.236;2023-07-31T00:06:40;27.20;53.70
13521;DHT22;6832;51.186;3.236;2023-07-31T00:09:08;27.10;53.60
13521;DHT22;6832;51.186;3.236;2023-07-31T00:11:35;27.20;53.70
13521;DHT22;6832;51.186;3.236;2023-07-31T00:14:02;27.20;53.70
13521;DHT22;6832;51.186;3.236;2023-07-31T00:16:29;27.20;53.70
13521;DHT22;6832;51.186;3.236;2023-07-31T00:18:56;27.10;53.70
13521;DHT22;6832;51.186;3.236;2023-07-31T00:21:23;27.10;53.70
13521;DHT22;6832;51.186;3.236;2023-07-31T00:23:50;27.10;53.80
13521;DHT22;6832;51.186;3.236;2023-07-31T00:26:18;27.10;53.70
13521;DHT22;6832;51.186;3.236;2023-07-31T00:28:45;27.10;53.80
13521;DHT22;6832;51.186;3.236;2023-07-31T00:31:12;27.10;53.80
13521;DHT22;6832;51.186;3.236;2023-07-31T00:33:39;27.10;53.80
13521;DHT22;6832;51.186;3.236;2023-07-31T00:36:05;27.10;53.80
13521;DHT22;6832;51.186;3.236;2023-07-31T00:38:32;27.10;53.80
13521;DHT22;6832;51.186;3.236;2023-07-31T00:40:59;27.10;53.80
13521;DHT22;6832;51.186;3.236;2023-07-31T00:43:27;27.10;53.80
13521;DHT22;6832;51.186;3.236;2023-07-31T00:45:54;27.10;53.80
13521;DHT22;6832;51.186;3.236;2023-07-31T00:48:21;27.10;53.80
13521;DHT22;6832;51.186;3.236;2023-07-31T00:50:50;27.10;53.80
13521;DHT22;6832;51.186;3.236;2023-07-31T00:53:17;27.10;53.80
13521;DHT22;6832;51.186;3.236;2023-07-31T00:55:44;27.10;53.80
13521;DHT22;6832;51.186;3.236;2023-07-31T00:58:11;27.10;53.80
13521;DHT22;6832;51.186;3.236;2023-07-31T01:00:39;27.10;53.80
13521;DHT22;6832;51.186;3.236;2023-07-31T01:03:06;27.10;53.80
13521;DHT22;6832;51.186;3.236;2023-07-31T01:05:43;27.10;54.50
13521;DHT22;6832;51.186;3.236;2023-07-31T01:08:29;27.10;53.90
13521;DHT22;6832;51.186;3.236;2023-07-31T01:11:02;27.10;53.90
13521;DHT22;6832;51.186;3.236;2023-07-31T01:13:32;27.10;53.90
13521;DHT22;6832;51.186;3.236;2023-07-31T01:16:00;27.10;53.90
13521;DHT22;6832;51.186;3.236;2023-07-31T01:18:27;27.10;53.90
13521;DHT22;6832;51.186;3.236;2023-07-31T01:20:58;27.00;53.80
13521;DHT22;6832;51.186;3.236;2023-07-31T01:23:58;27.10;53.90
13521;DHT22;6832;51.186;3.236;2023-07-31T01:26:37;27.00;53.90
13521;DHT22;6832;51.186;3.236;2023-07-31T01:29:10;27.00;53.90
13521;DHT22;6832;51.186;3.236;2023-07-31T01:31:42;27.00;53.90
13521;DHT22;6832;51.186;3.236;2023-07-31T01:34:10;27.00;53.90
13521;DHT22;6832;51.186;3.236;2023-07-31T01:36:38;27.00;53.90
13521;DHT22;6832;51.186;3.236;2023-07-31T01:39:04;27.00;53.90
13521;DHT22;6832;51.186;3.236;2023-07-31T01:41:31;27.00;54.00
13521;DHT22;6832;51.186;3.236;2023-07-31T01:44:00;27.00;54.00
13521;DHT22;6832;51.186;3.236;2023-07-31T01:46:26;27.00;54.00
13521;DHT22;6832;51.186;3.236;2023-07-31T01:48:53;27.00;54.00
13521;DHT22;6832;51.186;3.236;2023-07-31T01:51:20;27.00;54.00
13521;DHT22;6832;51.186;3.236;2023-07-31T01:53:47;27.00;54.00
13521;DHT22;6832;51.186;3.236;2023-07-31T01:56:14;27.00;54.00
13521;DHT22;6832;51.186;3.236;2023-07-31T01:58:41;27.00;54.00
13521;DHT22;6832;51.186;3.236;2023-07-31T02:01:09;27.00;54.00
13521;DHT22;6832;51.186;3.236;2023-07-31T02:03:36;27.00;54.00
13521;DHT22;6832;51.186;3.236;2023-07-31T02:06:03;27.00;54.00
13521;DHT22;6832;51.186;3.236;2023-07-31T02:08:30;27.00;54.10
13521;DHT22;6832;51.186;3.236;2023-07-31T02:10:56;27.00;54.10
13521;DHT22;6832;51.186;3.236;2023-07-31T02:13:23;27.00;54.10
13521;DHT22;6832;51.186;3.236;2023-07-31T02:15:50;26.90;54.60
13521;DHT22;6832;51.186;3.236;2023-07-31T02:18:19;27.00;54.10
13521;DHT22;6832;51.186;3.236;2023-07-31T02:20:49;27.00;54.20
13521;DHT22;6832;51.186;3.236;2023-07-31T02:23:16;27.00;54.10
13521;DHT22;6832;51.186;3.236;2023-07-31T02:25:43;26.90;54.10
13521;DHT22;6832;51.186;3.236;2023-07-31T02:28:10;26.90;54.10
13521;DHT22;6832;51.186;3.236;2023-07-31T02:30:37;26.90;54.10
13521;DHT22;6832;51.186;3.236;2023-07-31T02:33:04;26.90;54.10
13521;DHT22;6832;51.186;3.236;2023-07-31T02:35:32;26.90;54.10
13521;DHT22;6832;51.186;3.236;2023-07-31T02:37:59;26.90;54.10
13521;DHT22;6832;51.186;3.236;2023-07-31T02:40:26;26.90;54.20
13521;DHT22;6832;51.186;3.236;2023-07-31T02:42:53;26.90;54.10
13521;DHT22;6832;51.186;3.236;2023-07-31T02:45:20;26.90;54.20
13521;DHT22;6832;51.186;3.236;2023-07-31T02:47:47;26.90;54.20
13521;DHT22;6832;51.186;3.236;2023-07-31T02:50:14;26.90;54.10
13521;DHT22;6832;51.186;3.236;2023-07-31T02:52:42;26.90;54.10
13521;DHT22;6832;51.186;3.236;2023-07-31T02:55:09;26.90;54.10
13521;DHT22;6832;51.186;3.236;2023-07-31T02:57:36;26.90;54.20
13521;DHT22;6832;51.186;3.236;2023-07-31T03:00:03;26.90;54.20
13521;DHT22;6832;51.186;3.236;2023-07-31T03:02:31;26.90;54.10
13521;DHT22;6832;51.186;3.236;2023-07-31T03:04:58;26.90;54.20
13521;DHT22;6832;51.186;3.236;2023-07-31T03:07:25;26.90;54.80
13521;DHT22;6832;51.186;3.236;2023-07-31T03:09:54;26.90;54.20
13521;DHT22;6832;51.186;3.236;2023-07-31T03:12:21;26.80;54.10
13521;DHT22;6832;51.186;3.236;2023-07-31T03:14:48;26.80;54.10
13521;DHT22;6832;51.186;3.236;2023-07-31T03:17:15;26.80;54.10
13521;DHT22;6832;51.186;3.236;2023-07-31T03:19:42;26.80;54.10
13521;DHT22;6832;51.186;3.236;2023-07-31T03:22:09;26.80;54.10
13521;DHT22;6832;51.186;3.236;2023-07-31T03:24:36;26.90;54.40
13521;DHT22;6832;51.186;3.236;2023-07-31T03:27:05;26.90;54.20
13521;DHT22;6832;51.186;3.236;2023-07-31T03:29:32;26.80;54.10
13521;DHT22;6832;51.186;3.236;2023-07-31T03:31:58;26.80;54.20
13521;DHT22;6832;51.186;3.236;2023-07-31T03:34:29;26.80;54.10
13521;DHT22;6832;51.186;3.236;2023-07-31T03:36:57;26.80;54.20
13521;DHT22;6832;51.186;3.236;2023-07-31T03:39:24;26.80;54.70
13521;DHT22;6832;51.186;3.236;2023-07-31T03:41:51;26.80;54.20
13521;DHT22;6832;51.186;3.236;2023-07-31T03:44:19;26.80;54.20
13521;DHT22;6832;51.186;3.236;2023-07-31T03:46:48;26.80;54.20
13521;DHT22;6832;51.186;3.236;2023-07-31T03:49:15;26.80;54.20
13521;DHT22;6832;51.186;3.236;2023-07-31T03:51:42;26.80;54.20
13521;DHT22;6832;51.186;3.236;2023-07-31T03:54:09;26.80;54.20
13521;DHT22;6832;51.186;3.236;2023-07-31T03:56:36;26.80;54.30
13521;DHT22;6832;51.186;3.236;2023-07-31T03:59:04;26.80;54.20
13521;DHT22;6832;51.186;3.236;2023-07-31T04:01:32;26.80;54.30
13521;DHT22;6832;51.186;3.236;2023-07-31T04:03:59;26.80;54.30
13521;DHT22;6832;51.186;3.236;2023-07-31T04:06:26;26.80;54.30
13521;DHT22;6832;51.186;3.236;2023-07-31T04:08:53;26.70;54.30
13521;DHT22;6832;51.186;3.236;2023-07-31T04:11:20;26.80;54.30
13521;DHT22;6832;51.186;3.236;2023-07-31T04:13:47;26.80;54.40
13521;DHT22;6832;51.186;3.236;2023-07-31T04:16:13;26.70;54.30
13521;DHT22;6832;51.186;3.236;2023-07-31T04:18:42;26.70;54.30
13521;DHT22;6832;51.186;3.236;2023-07-31T04:21:09;26.70;54.30
13521;DHT22;6832;51.186;3.236;2023-07-31T04:23:36;26.70;54.30
13521;DHT22;6832;51.186;3.236;2023-07-31T04:26:03;26.70;54.30
13521;DHT22;6832;51.186;3.236;2023-07-31T04:28:30;26.70;54.40
13521;DHT22;6832;51.186;3.236;2023-07-31T04:30:57;26.70;54.30
13521;DHT22;6832;51.186;3.236;2023-07-31T04:33:24;26.70;55.00
13521;DHT22;6832;51.186;3.236;2023-07-31T04:35:53;26.70;54.40
13521;DHT22;6832;51.186;3.236;2023-07-31T04:38:21;26.70;54.40
13521;DHT22;6832;51.186;3.236;2023-07-31T04:40:48;26.70;54.40
13521;DHT22;6832;51.186;3.236;2023-07-31T04:43:16;26.70;54.40
13521;DHT22;6832;51.186;3.236;2023-07-31T04:45:45;26.70;54.40
13521;DHT22;6832;51.186;3.236;2023-07-31T04:48:12;26.70;54.40
13521;DHT22;6832;51.186;3.236;2023-07-31T04:50:40;26.60;54.30
13521;DHT22;6832;51.186;3.236;2023-07-31T04:53:08;26.70;54.50
13521;DHT22;6832;51.186;3.236;2023-07-31T04:55:35;26.70;54.50
13521;DHT22;6832;51.186;3.236;2023-07-31T04:58:02;26.70;54.50
13521;DHT22;6832;51.186;3.236;2023-07-31T05:00:29;26.60;54.50
13521;DHT22;6832;51.186;3.236;2023-07-31T05:02:56;26.60;54.50
13521;DHT22;6832;51.186;3.236;2023-07-31T05:05:23;26.60;54.50
13521;DHT22;6832;51.186;3.236;2023-07-31T05:07:50;26.60;54.50
13521;DHT22;6832;51.186;3.236;2023-07-31T05:10:18;26.60;54.50
13521;DHT22;6832;51.186;3.236;2023-07-31T05:12:45;26.60;54.50
13521;DHT22;6832;51.186;3.236;2023-07-31T05:15:12;26.60;54.50
13521;DHT22;6832;51.186;3.236;2023-07-31T05:17:39;26.60;54.50
13521;DHT22;6832;51.186;3.236;2023-07-31T05:20:07;26.60;54.50
13521;DHT22;6832;51.186;3.236;2023-07-31T05:22:34;26.60;54.50
13521;DHT22;6832;51.186;3.236;2023-07-31T05:25:01;26.50;54.40
13521;DHT22;6832;51.186;3.236;2023-07-31T05:27:30;26.50;54.50
13521;DHT22;6832;51.186;3.236;2023-07-31T05:29:57;26.60;54.50
13521;DHT22;6832;51.186;3.236;2023-07-31T05:32:24;26.50;54.50
13521;DHT22;6832;51.186;3.236;2023-07-31T05:34:51;26.50;54.60
13521;DHT22;6832;51.186;3.236;2023-07-31T05:37:18;26.50;54.60
13521;DHT22;6832;51.186;3.236;2023-07-31T05:39:45;26.60;54.60
13521;DHT22;6832;51.186;3.236;2023-07-31T05:42:13;26.50;54.60
13521;DHT22;6832;51.186;3.236;2023-07-31T05:44:42;26.50;54.60
13521;DHT22;6832;51.186;3.236;2023-07-31T05:47:09;26.50;54.70
13521;DHT22;6832;51.186;3.236;2023-07-31T05:49:36;26.50;54.70
13521;DHT22;6832;51.186;3.236;2023-07-31T05:52:04;26.50;54.60
13521;DHT22;6832;51.186;3.236;2023-07-31T05:54:32;26.50;54.60
13521;DHT22;6832;51.186;3.236;2023-07-31T05:56:59;26.50;54.70
13521;DHT22;6832;51.186;3.236;2023-07-31T05:59:26;26.50;54.70
13521;DHT22;6832;51.186;3.236;2023-07-31T06:01:54;26.50;54.70
13521;DHT22;6832;51.186;3.236;2023-07-31T06:04:21;26.50;55.40
13521;DHT22;6832;51.186;3.236;2023-07-31T06:06:51;26.40;54.70
13521;DHT22;6832;51.186;3.236;2023-07-31T06:09:18;26.50;54.80
13521;DHT22;6832;51.186;3.236;2023-07-31T06:11:46;26.50;54.80
13521;DHT22;6832;51.186;3.236;2023-07-31T06:14:12;26.50;54.90
13521;DHT22;6832;51.186;3.236;2023-07-31T06:16:40;26.50;55.30
13521;DHT22;6832;51.186;3.236;2023-07-31T06:19:08;26.40;55.20
13521;DHT22;6832;51.186;3.236;2023-07-31T06:21:35;26.40;55.00
13521;DHT22;6832;51.186;3.236;2023-07-31T06:24:04;26.40;55.00
13521;DHT22;6832;51.186;3.236;2023-07-31T06:26:31;26.40;55.00
13521;DHT22;6832;51.186;3.236;2023-07-31T06:28:58;26.30;55.00
13521;DHT22;6832;51.186;3.236;2023-07-31T06:31:24;26.20;55.00
13521;DHT22;6832;51.186;3.236;2023-07-31T06:33:52;26.30;55.10
13521;DHT22;6832;51.186;3.236;2023-07-31T06:36:20;26.20;55.10
13521;DHT22;6832;51.186;3.236;2023-07-31T06:38:47;26.20;55.20
13521;DHT22;6832;51.186;3.236;2023-07-31T06:41:14;26.20;55.20
13521;DHT22;6832;51.186;3.236;2023-07-31T06:43:41;26.20;55.20
13521;DHT22;6832;51.186;3.236;2023-07-31T06:46:08;26.20;55.20
13521;DHT22;6832;51.186;3.236;2023-07-31T06:48:36;26.20;55.20
13521;DHT22;6832;51.186;3.236;2023-07-31T06:51:03;26.20;55.30
13521;DHT22;6832;51.186;3.236;2023-07-31T06:53:32;26.20;55.30
13521;DHT22;6832;51.186;3.236;2023-07-31T06:55:59;26.20;55.30
13521;DHT22;6832;51.186;3.236;2023-07-31T06:58:26;26.20;55.30
13521;DHT22;6832;51.186;3.236;2023-07-31T07:00:53;26.20;55.40
13521;DHT22;6832;51.186;3.236;2023-07-31T07:03:19;26.20;55.40
13521;DHT22;6832;51.186;3.236;2023-07-31T07:05:48;26.20;55.50
13521;DHT22;6832;51.186;3.236;2023-07-31T07:08:15;26.20;55.50
13521;DHT22;6832;51.186;3.236;2023-07-31T07:10:44;26.20;55.50
13521;DHT22;6832;51.186;3.236;2023-07-31T07:13:11;26.30;55.60
13521;DHT22;6832;51.186;3.236;2023-07-31T07:15:39;26.30;55.60
13521;DHT22;6832;51.186;3.236;2023-07-31T07:18:06;26.20;55.60
13521;DHT22;6832;51.186;3.236;2023-07-31T07:20:33;26.30;55.60
13521;DHT22;6832;51.186;3.236;2023-07-31T07:23:00;26.30;55.60
13521;DHT22;6832;51.186;3.236;2023-07-31T07:25:27;26.20;55.50
13521;DHT22;6832;51.186;3.236;2023-07-31T07:27:55;26.30;56.10
13521;DHT22;6832;51.186;3.236;2023-07-31T07:30:22;26.30;55.60
13521;DHT22;6832;51.186;3.236;2023-07-31T07:32:50;26.30;55.60
13521;DHT22;6832;51.186;3.236;2023-07-31T07:35:17;26.30;55.60
13521;DHT22;6832;51.186;3.236;2023-07-31T07:37:44;26.30;55.60
13521;DHT22;6832;51.186;3.236;2023-07-31T07:40:11;26.30;55.60
13521;DHT22;6832;51.186;3.236;2023-07-31T07:42:38;26.30;55.60
13521;DHT22;6832;51.186;3.236;2023-07-31T07:45:07;26.30;55.80
13521;DHT22;6832;51.186;3.236;2023-07-31T07:47:34;26.30;55.90
13521;DHT22;6832;51.186;3.236;2023-07-31T07:50:01;26.30;55.70
13521;DHT22;6832;51.186;3.236;2023-07-31T07:52:28;26.30;55.70
13521;DHT22;6832;51.186;3.236;2023-07-31T07:54:55;26.30;55.70
13521;DHT22;6832;51.186;3.236;2023-07-31T07:57:22;26.30;55.80
13521;DHT22;6832;51.186;3.236;2023-07-31T07:59:49;26.30;55.70
13521;DHT22;6832;51.186;3.236;2023-07-31T08:02:17;26.30;55.70
13521;DHT22;6832;51.186;3.236;2023-07-31T08:04:44;26.30;55.70
13521;DHT22;6832;51.186;3.236;2023-07-31T08:07:11;26.30;55.70
13521;DHT22;6832;51.186;3.236;2023-07-31T08:09:38;26.30;55.70
13521;DHT22;6832;51.186;3.236;2023-07-31T08:12:06;26.30;55.70
13521;DHT22;6832;51.186;3.236;2023-07-31T08:14:33;26.40;55.80
13521;DHT22;6832;51.186;3.236;2023-07-31T08:17:02;26.30;55.80
13521;DHT22;6832;51.186;3.236;2023-07-31T08:19:30;26.30;55.80
13521;DHT22;6832;51.186;3.236;2023-07-31T08:21:57;26.30;55.80
13521;DHT22;6832;51.186;3.236;2023-07-31T08:24:24;26.30;55.80
13521;DHT22;6832;51.186;3.236;2023-07-31T08:26:51;26.30;55.80
13521;DHT22;6832;51.186;3.236;2023-07-31T08:29:18;26.30;55.80
13521;DHT22;6832;51.186;3.236;2023-07-31T08:31:45;26.30;55.90
13521;DHT22;6832;51.186;3.236;2023-07-31T08:34:12;26.30;55.80
13521;DHT22;6832;51.186;3.236;2023-07-31T08:36:40;26.30;55.90
13521;DHT22;6832;51.186;3.236;2023-07-31T08:39:07;26.40;56.00
13521;DHT22;6832;51.186;3.236;2023-07-31T08:41:37;26.30;56.00
13521;DHT22;6832;51.186;3.236;2023-07-31T08:44:05;26.30;56.00
13521;DHT22;6832;51.186;3.236;2023-07-31T08:46:33;26.30;56.00
13521;DHT22;6832;51.186;3.236;2023-07-31T08:49:02;26.40;56.00
13521;DHT22;6832;51.186;3.236;2023-07-31T08:51:30;26.40;56.00
13521;DHT22;6832;51.186;3.236;2023-07-31T08:53:59;26.40;56.00
13521;DHT22;6832;51.186;3.236;2023-07-31T08:56:26;26.40;56.00
13521;DHT22;6832;51.186;3.236;2023-07-31T08:58:54;26.40;56.00
13521;DHT22;6832;51.186;3.236;2023-07-31T09:01:22;26.40;56.00
13521;DHT22;6832;51.186;3.236;2023-07-31T09:03:51;26.40;56.00
13521;DHT22;6832;51.186;3.236;2023-07-31T09:06:18;26.40;56.00
13521;DHT22;6832;51.186;3.236;2023-07-31T09:08:49;26.40;56.00
13521;DHT22;6832;51.186;3.236;2023-07-31T09:11:17;26.40;56.10
13521;DHT22;6832;51.186;3.236;2023-07-31T09:13:46;26.40;56.70
13521;DHT22;6832;51.186;3.236;2023-07-31T09:16:13;26.50;56.10
13521;DHT22;6832;51.186;3.236;2023-07-31T09:18:53;26.50;56.10
13521;DHT22;6832;51.186;3.236;2023-07-31T09:21:20;26.50;56.10
13521;DHT22;6832;51.186;3.236;2023-07-31T09:23:49;26.40;56.00
13521;DHT22;6832;51.186;3.236;2023-07-31T09:26:35;26.40;56.10
13521;DHT22;6832;51.186;3.236;2023-07-31T09:29:05;26.50;56.10
13521;DHT22;6832;51.186;3.236;2023-07-31T09:31:39;26.50;56.10
13521;DHT22;6832;51.186;3.236;2023-07-31T09:34:06;26.50;56.10
13521;DHT22;6832;51.186;3.236;2023-07-31T09:36:40;26.50;56.10
13521;DHT22;6832;51.186;3.236;2023-07-31T09:39:09;26.50;56.10
13521;DHT22;6832;51.186;3.236;2023-07-31T09:41:39;26.50;56.10
13521;DHT22;6832;51.186;3.236;2023-07-31T09:44:06;26.50;56.10
13521;DHT22;6832;51.186;3.236;2023-07-31T09:46:35;26.50;56.10
13521;DHT22;6832;51.186;3.236;2023-07-31T09:49:07;26.50;56.10
13521;DHT22;6832;51.186;3.236;2023-07-31T09:51:35;26.50;56.10
13521;DHT22;6832;51.186;3.236;2023-07-31T09:54:11;26.50;56.10
13521;DHT22;6832;51.186;3.236;2023-07-31T09:56:44;26.50;56.10
13521;DHT22;6832;51.186;3.236;2023-07-31T09:59:13;26.50;56.10
13521;DHT22;6832;51.186;3.236;2023-07-31T10:01:41;26.50;56.10
13521;DHT22;6832;51.186;3.236;2023-07-31T10:04:09;26.50;56.10
13521;DHT22;6832;51.186;3.236;2023-07-31T10:06:37;26.50;56.10
13521;DHT22;6832;51.186;3.236;2023-07-31T10:09:06;26.50;56.10
13521;DHT22;6832;51.186;3.236;2023-07-31T10:11:38;26.50;56.10
13521;DHT22;6832;51.186;3.236;2023-07-31T10:14:10;26.50;56.80
13521;DHT22;6832;51.186;3.236;2023-07-31T10:16:38;26.50;56.10
13521;DHT22;6832;51.186;3.236;2023-07-31T10:19:06;26.50;56.10
13521;DHT22;6832;51.186;3.236;2023-07-31T10:21:35;26.50;56.10
13521;DHT22;6832;51.186;3.236;2023-07-31T10:24:04;26.50;56.10
13521;DHT22;6832;51.186;3.236;2023-07-31T10:26:32;26.50;56.10
13521;DHT22;6832;51.186;3.236;2023-07-31T10:28:59;26.50;56.10
13521;DHT22;6832;51.186;3.236;2023-07-31T10:31:28;26.60;56.20
13521;DHT22;6832;51.186;3.236;2023-07-31T10:33:57;26.50;56.10
13521;DHT22;6832;51.186;3.236;2023-07-31T10:36:24;26.50;56.10
13521;DHT22;6832;51.186;3.236;2023-07-31T10:38:52;26.50;56.10
13521;DHT22;6832;51.186;3.236;2023-07-31T10:41:28;26.60;56.20
13521;DHT22;6832;51.186;3.236;2023-07-31T10:43:57;26.60;56.20
13521;DHT22;6832;51.186;3.236;2023-07-31T10:46:24;26.60;56.20
13521;DHT22;6832;51.186;3.236;2023-07-31T10:48:59;26.60;56.20
13521;DHT22;6832;51.186;3.236;2023-07-31T10:51:33;26.60;56.20
13521;DHT22;6832;51.186;3.236;2023-07-31T10:54:11;26.60;56.20
13521;DHT22;6832;51.186;3.236;2023-07-31T10:56:38;26.60;56.20
13521;DHT22;6832;51.186;3.236;2023-07-31T10:59:05;26.60;56.20
13521;DHT22;6832;51.186;3.236;2023-07-31T11:01:52;26.60;56.20
13521;DHT22;6832;51.186;3.236;2023-07-31T11:04:25;26.60;56.30
13521;DHT22;6832;51.186;3.236;2023-07-31T11:06:56;26.60;56.30
13521;DHT22;6832;51.186;3.236;2023-07-31T11:09:28;26.60;56.20
13521;DHT22;6832;51.186;3.236;2023-07-31T11:11:56;26.60;56.30
13521;DHT22;6832;51.186;3.236;2023-07-31T11:14:23;26.60;56.20
13521;DHT22;6832;51.186;3.236;2023-07-31T11:16:50;26.60;56.20
13521;DHT22;6832;51.186;3.236;2023-07-31T11:19:21;26.60;56.20
13521;DHT22;6832;51.186;3.236;2023-07-31T11:21:51;26.60;56.30
13521;DHT22;6832;51.186;3.236;2023-07-31T11:24:18;26.60;56.30
13521;DHT22;6832;51.186;3.236;2023-07-31T11:26:50;26.70;56.40
13521;DHT22;6832;51.186;3.236;2023-07-31T11:29:17;26.60;56.30
13521;DHT22;6832;51.186;3.236;2023-07-31T11:31:44;26.60;56.30
13521;DHT22;6832;51.186;3.236;2023-07-31T11:34:12;26.70;56.40
13521;DHT22;6832;51.186;3.236;2023-07-31T11:36:39;26.60;56.30
13521;DHT22;6832;51.186;3.236;2023-07-31T11:39:08;26.60;56.30
13521;DHT22;6832;51.186;3.236;2023-07-31T11:41:35;26.60;56.30
13521;DHT22;6832;51.186;3.236;2023-07-31T11:44:02;26.60;56.30
13521;DHT22;6832;51.186;3.236;2023-07-31T11:46:30;26.70;56.40
13521;DHT22;6832;51.186;3.236;2023-07-31T11:48:59;26.70;56.40
13521;DHT22;6832;51.186;3.236;2023-07-31T11:51:27;26.70;56.40
13521;DHT22;6832;51.186;3.236;2023-07-31T11:53:57;26.60;56.30
13521;DHT22;6832;51.186;3.236;2023-07-31T11:56:27;26.70;56.40
13521;DHT22;6832;51.186;3.236;2023-07-31T11:58:57;26.70;56.40
13521;DHT22;6832;51.186;3.236;2023-07-31T12:01:25;26.70;56.40
13521;DHT22;6832;51.186;3.236;2023-07-31T12:03:55;26.70;56.40
13521;DHT22;6832;51.186;3.236;2023-07-31T12:06:32;26.60;56.40
13521;DHT22;6832;51.186;3.236;2023-07-31T12:09:02;26.60;56.40
13521;DHT22;6832;51.186;3.236;2023-07-31T12:11:31;26.70;56.40
13521;DHT22;6832;51.186;3.236;2023-07-31T12:13:58;26.70;56.50
13521;DHT22;6832;51.186;3.236;2023-07-31T12:16:26;26.70;56.40
13521;DHT22;6832;51.186;3.236;2023-07-31T12:18:53;26.70;56.50
13521;DHT22;6832;51.186;3.236;2023-07-31T12:21:20;26.70;56.50
13521;DHT22;6832;51.186;3.236;2023-07-31T12:23:47;26.70;56.60
13521;DHT22;6832;51.186;3.236;2023-07-31T12:26:16;26.60;56.40
13521;DHT22;6832;51.186;3.236;2023-07-31T12:28:46;26.70;56.50
13521;DHT22;6832;51.186;3.236;2023-07-31T12:31:14;26.70;56.60
13521;DHT22;6832;51.186;3.236;2023-07-31T12:33:43;26.70;56.60
13521;DHT22;6832;51.186;3.236;2023-07-31T12:36:12;26.70;56.60
13521;DHT22;6832;51.186;3.236;2023-07-31T12:38:39;26.70;56.60
13521;DHT22;6832;51.186;3.236;2023-07-31T12:41:06;26.70;56.60
13521;DHT22;6832;51.186;3.236;2023-07-31T12:43:33;26.70;56.60
13521;DHT22;6832;51.186;3.236;2023-07-31T12:46:02;26.70;56.60
13521;DHT22;6832;51.186;3.236;2023-07-31T12:48:29;26.70;56.60
13521;DHT22;6832;51.186;3.236;2023-07-31T12:50:56;26.70;56.60
13521;DHT22;6832;51.186;3.236;2023-07-31T12:53:23;26.70;56.60
13521;DHT22;6832;51.186;3.236;2023-07-31T12:55:50;26.70;56.60
13521;DHT22;6832;51.186;3.236;2023-07-31T12:58:17;26.70;56.60
13521;DHT22;6832;51.186;3.236;2023-07-31T13:00:44;26.70;56.60
13521;DHT22;6832;51.186;3.236;2023-07-31T13:03:12;26.70;56.60
13521;DHT22;6832;51.186;3.236;2023-07-31T13:05:39;26.70;56.60
13521;DHT22;6832;51.186;3.236;2023-07-31T13:08:06;26.70;56.60
13521;DHT22;6832;51.186;3.236;2023-07-31T13:10:33;26.80;56.60
13521;DHT22;6832;51.186;3.236;2023-07-31T13:13:00;26.70;57.10
13521;DHT22;6832;51.186;3.236;2023-07-31T13:15:27;26.70;56.60
13521;DHT22;6832;51.186;3.236;2023-07-31T13:17:55;26.70;56.60
13521;DHT22;6832;51.186;3.236;2023-07-31T13:20:23;26.80;56.70
13521;DHT22;6832;51.186;3.236;2023-07-31T13:22:50;26.80;56.70
13521;DHT22;6832;51.186;3.236;2023-07-31T13:25:17;26.80;56.70
13521;DHT22;6832;51.186;3.236;2023-07-31T13:27:48;26.80;56.60
13521;DHT22;6832;51.186;3.236;2023-07-31T13:30:15;26.80;56.70
13521;DHT22;6832;51.186;3.236;2023-07-31T13:32:41;26.80;57.30
13521;DHT22;6832;51.186;3.236;2023-07-31T13:35:08;26.70;56.60
13521;DHT22;6832;51.186;3.236;2023-07-31T13:37:38;26.70;56.60
13521;DHT22;6832;51.186;3.236;2023-07-31T13:40:07;26.70;56.60
13521;DHT22;6832;51.186;3.236;2023-07-31T13:42:34;26.80;56.70
13521;DHT22;6832;51.186;3.236;2023-07-31T13:45:01;26.70;56.60
13521;DHT22;6832;51.186;3.236;2023-07-31T13:47:28;26.70;57.30
13521;DHT22;6832;51.186;3.236;2023-07-31T13:49:55;26.70;56.70
13521;DHT22;6832;51.186;3.236;2023-07-31T13:52:22;26.70;56.70
13521;DHT22;6832;51.186;3.236;2023-07-31T13:54:50;26.70;56.70
13521;DHT22;6832;51.186;3.236;2023-07-31T13:57:17;26.70;56.70
13521;DHT22;6832;51.186;3.236;2023-07-31T13:59:44;26.70;56.70
13521;DHT22;6832;51.186;3.236;2023-07-31T14:02:11;26.70;56.80
13521;DHT22;6832;51.186;3.236;2023-07-31T14:04:39;26.70;56.70
13521;DHT22;6832;51.186;3.236;2023-07-31T14:07:06;26.70;56.80
13521;DHT22;6832;51.186;3.236;2023-07-31T14:09:33;26.60;56.70
13521;DHT22;6832;51.186;3.236;2023-07-31T14:12:01;26.70;56.80
13521;DHT22;6832;51.186;3.236;2023-07-31T14:14:28;26.60;56.70
13521;DHT22;6832;51.186;3.236;2023-07-31T14:16:55;26.70;56.80
13521;DHT22;6832;51.186;3.236;2023-07-31T14:19:22;26.70;56.90
13521;DHT22;6832;51.186;3.236;2023-07-31T14:21:50;26.60;56.90
13521;DHT22;6832;51.186;3.236;2023-07-31T14:24:17;26.60;56.90
13521;DHT22;6832;51.186;3.236;2023-07-31T14:26:44;26.70;57.00
13521;DHT22;6832;51.186;3.236;2023-07-31T14:29:12;26.60;57.00
13521;DHT22;6832;51.186;3.236;2023-07-31T14:31:39;26.60;57.00
13521;DHT22;6832;51.186;3.236;2023-07-31T14:34:06;26.60;57.10
13521;DHT22;6832;51.186;3.236;2023-07-31T14:36:33;26.60;57.10
13521;DHT22;6832;51.186;3.236;2023-07-31T14:39:00;26.70;57.10
13521;DHT22;6832;51.186;3.236;2023-07-31T14:41:27;26.70;57.20
13521;DHT22;6832;51.186;3.236;2023-07-31T14:43:55;26.70;57.10
13521;DHT22;6832;51.186;3.236;2023-07-31T14:46:24;26.70;57.20
13521;DHT22;6832;51.186;3.236;2023-07-31T14:48:51;26.70;57.20
13521;DHT22;6832;51.186;3.236;2023-07-31T14:51:18;26.70;57.30
13521;DHT22;6832;51.186;3.236;2023-07-31T14:53:45;26.70;57.20
13521;DHT22;6832;51.186;3.236;2023-07-31T14:56:12;26.70;57.20
13521;DHT22;6832;51.186;3.236;2023-07-31T14:58:39;26.70;57.20
13521;DHT22;6832;51.186;3.236;2023-07-31T15:01:06;26.70;57.30
13521;DHT22;6832;51.186;3.236;2023-07-31T15:03:35;26.70;57.30
13521;DHT22;6832;51.186;3.236;2023-07-31T15:06:02;26.70;57.30
13521;DHT22;6832;51.186;3.236;2023-07-31T15:08:30;26.70;57.30
13521;DHT22;6832;51.186;3.236;2023-07-31T15:10:57;26.70;57.30
13521;DHT22;6832;51.186;3.236;2023-07-31T15:13:24;26.80;57.30
13521;DHT22;6832;51.186;3.236;2023-07-31T15:15:51;26.70;57.30
13521;DHT22;6832;51.186;3.236;2023-07-31T15:18:18;26.80;57.30
13521;DHT22;6832;51.186;3.236;2023-07-31T15:20:47;26.80;57.30
13521;DHT22;6832;51.186;3.236;2023-07-31T15:23:14;26.80;57.30
13521;DHT22;6832;51.186;3.236;2023-07-31T15:25:41;26.80;57.30
13521;DHT22;6832;51.186;3.236;2023-07-31T15:28:08;26.80;57.30
13521;DHT22;6832;51.186;3.236;2023-07-31T15:30:35;26.80;57.90
13521;DHT22;6832;51.186;3.236;2023-07-31T15:33:03;26.80;57.30
13521;DHT22;6832;51.186;3.236;2023-07-31T15:35:30;26.80;57.20
13521;DHT22;6832;51.186;3.236;2023-07-31T15:37:58;26.80;57.20
13521;DHT22;6832;51.186;3.236;2023-07-31T15:40:25;26.80;57.20
13521;DHT22;6832;51.186;3.236;2023-07-31T15:42:52;26.80;57.20
13521;DHT22;6832;51.186;3.236;2023-07-31T15:45:19;26.80;57.20
13521;DHT22;6832;51.186;3.236;2023-07-31T15:47:47;26.80;57.20
13521;DHT22;6832;51.186;3.236;2023-07-31T15:50:14;26.80;57.20